createdAt,value
2019-03-03T00:00:49.190Z,73.29
2019-03-03T00:03:17.990Z,73.56
2019-03-03T00:05:46.858Z,73.25
2019-03-03T00:08:15.754Z,72.67
2019-03-03T00:10:44.545Z,72.93
2019-03-03T00:13:13.484Z,71.33
2019-03-03T00:15:42.621Z,71.17
2019-03-03T00:18:11.414Z,70.73
2019-03-03T00:20:40.268Z,71.00
2019-03-03T00:23:09.261Z,70.51
2019-03-03T00:25:39.878Z,70.65
2019-03-03T00:28:09.106Z,70.60
2019-03-03T00:30:38.086Z,70.45
2019-03-03T00:33:06.977Z,70.67
2019-03-03T00:35:35.761Z,71.04
2019-03-03T00:38:23.684Z,71.35
2019-03-03T00:41:02.684Z,71.60
2019-03-03T00:43:49.755Z,71.65
2019-03-03T00:46:36.415Z,71.08
2019-03-03T00:49:24.397Z,71.44
2019-03-03T00:52:16.998Z,71.51
2019-03-03T00:55:03.835Z,71.91
2019-03-03T00:57:51.632Z,71.90
2019-03-03T01:00:34.589Z,72.43
2019-03-03T01:03:21.402Z,71.95
2019-03-03T01:05:56.115Z,71.75
2019-03-03T01:08:53.063Z,71.73
2019-03-03T01:11:40.027Z,72.10
2019-03-03T01:14:40.071Z,71.97
2019-03-03T01:17:25.880Z,72.45
2019-03-03T01:20:05.640Z,72.51
2019-03-03T01:22:41.584Z,72.42
2019-03-03T01:25:10.563Z,72.79
2019-03-03T01:27:39.342Z,72.93
2019-03-03T01:30:10.730Z,72.62
2019-03-03T01:32:39.561Z,72.40
2019-03-03T01:35:09.142Z,72.35
2019-03-03T01:37:38.046Z,71.88
2019-03-03T01:40:07.952Z,72.08
2019-03-03T01:42:36.745Z,72.43
2019-03-03T01:45:06.886Z,72.21
2019-03-03T01:47:35.853Z,72.37
2019-03-03T01:50:06.998Z,72.31
2019-03-03T01:52:35.808Z,71.82
2019-03-03T01:55:05.349Z,71.90
2019-03-03T01:57:34.165Z,72.25
2019-03-03T02:00:03.064Z,72.08
2019-03-03T02:02:32.036Z,71.99
2019-03-03T02:05:00.922Z,71.67
2019-03-03T02:07:29.727Z,71.91
2019-03-03T02:09:58.598Z,71.98
2019-03-03T02:12:27.401Z,71.80
2019-03-03T02:14:56.249Z,72.00
2019-03-03T02:17:25.059Z,71.93
2019-03-03T02:22:26.574Z,71.41
2019-03-03T02:24:55.390Z,71.30
2019-03-03T02:27:24.498Z,71.01
2019-03-03T02:29:53.388Z,71.08
2019-03-03T02:32:22.187Z,71.42
2019-03-03T02:34:51.076Z,71.33
2019-03-03T02:37:19.864Z,70.80
2019-03-03T02:39:48.746Z,71.00
2019-03-03T02:42:17.881Z,70.50
2019-03-03T02:44:46.811Z,70.11
2019-03-03T02:47:15.605Z,69.45
2019-03-03T02:49:44.853Z,69.21
2019-03-03T02:52:13.750Z,68.68
2019-03-03T02:54:42.566Z,68.54
2019-03-03T02:57:11.362Z,68.29
2019-03-03T02:59:40.198Z,68.15
2019-03-03T03:02:26.777Z,67.92
2019-03-03T03:04:55.932Z,67.77
2019-03-03T03:07:56.142Z,67.59
2019-03-03T03:10:47.897Z,67.34
2019-03-03T03:13:25.003Z,66.96
2019-03-03T03:15:58.932Z,66.46
2019-03-03T03:18:51.397Z,66.14
2019-03-03T03:21:33.754Z,66.46
2019-03-03T03:24:18.343Z,66.21
2019-03-03T03:27:21.333Z,66.67
2019-03-03T03:30:09.162Z,66.31
2019-03-03T03:32:43.819Z,65.65
2019-03-03T03:35:50.225Z,65.45
2019-03-03T03:38:23.641Z,66.09
2019-03-03T03:40:58.421Z,65.71
2019-03-03T03:43:46.029Z,65.88
2019-03-03T03:46:29.159Z,65.56
2019-03-03T03:49:13.727Z,65.41
2019-03-03T03:52:10.819Z,65.50
2019-03-03T03:55:01.745Z,64.90
2019-03-03T03:57:39.346Z,65.07
2019-03-03T04:00:28.732Z,64.95
2019-03-03T04:03:16.074Z,64.76
2019-03-03T04:06:13.264Z,64.97
2019-03-03T04:08:47.828Z,65.17
2019-03-03T04:11:41.892Z,64.58
2019-03-03T04:14:26.971Z,64.66
2019-03-03T04:17:24.000Z,64.35
2019-03-03T04:20:18.271Z,64.50
2019-03-03T04:23:01.269Z,64.79
2019-03-03T04:25:42.354Z,64.56
2019-03-03T04:28:23.186Z,64.48
2019-03-03T04:31:01.530Z,64.32
2019-03-03T04:33:48.658Z,64.17
2019-03-03T04:36:54.647Z,64.28
2019-03-03T04:39:32.893Z,64.13
2019-03-03T04:42:23.926Z,64.16
2019-03-03T04:45:06.313Z,64.42
2019-03-03T04:47:53.025Z,64.99
2019-03-03T04:50:27.847Z,64.60
2019-03-03T04:53:06.515Z,64.28
2019-03-03T04:56:00.955Z,64.50
2019-03-03T04:58:48.893Z,64.61
2019-03-03T05:01:49.537Z,64.77
2019-03-03T05:04:30.342Z,64.76
2019-03-03T05:07:16.413Z,64.95
2019-03-03T05:10:13.163Z,65.03
2019-03-03T05:13:06.761Z,65.54
2019-03-03T05:16:09.880Z,64.85
2019-03-03T05:18:49.843Z,65.15
2019-03-03T05:21:18.658Z,64.82
2019-03-03T05:23:47.501Z,65.00
2019-03-03T05:26:16.338Z,65.01
2019-03-03T05:28:45.516Z,64.58
2019-03-03T05:31:14.373Z,64.90
2019-03-03T05:33:43.155Z,64.88
2019-03-03T05:36:11.969Z,65.19
2019-03-03T05:38:40.748Z,64.91
2019-03-03T05:41:09.922Z,64.87
2019-03-03T05:43:38.719Z,64.70
2019-03-03T05:46:07.497Z,64.95
2019-03-03T05:48:36.320Z,65.22
2019-03-03T05:51:05.165Z,65.51
2019-03-03T05:53:34.026Z,65.21
2019-03-03T05:56:02.884Z,65.37
2019-03-03T05:58:31.690Z,65.48
2019-03-03T06:01:00.472Z,65.45
2019-03-03T06:03:29.599Z,65.49
2019-03-03T06:05:58.752Z,65.57
2019-03-03T06:08:27.544Z,65.77
2019-03-03T06:10:56.373Z,66.08
2019-03-03T06:13:25.237Z,66.77
2019-03-03T06:15:54.019Z,66.70
2019-03-03T06:18:22.846Z,66.76
2019-03-03T06:20:51.629Z,66.60
2019-03-03T06:23:20.530Z,67.10
2019-03-03T06:25:49.526Z,67.83
2019-03-03T06:28:18.317Z,68.36
2019-03-03T06:30:47.168Z,68.34
2019-03-03T06:33:15.959Z,67.97
2019-03-03T06:35:45.339Z,67.60
2019-03-03T06:38:14.162Z,67.14
2019-03-03T06:40:42.957Z,66.74
2019-03-03T06:43:11.735Z,66.50
2019-03-03T06:45:40.559Z,66.69
2019-03-03T06:48:09.345Z,66.83
2019-03-03T06:50:38.509Z,66.26
2019-03-03T06:53:07.653Z,66.47
2019-03-03T06:55:36.461Z,66.21
2019-03-03T06:58:05.246Z,66.14
2019-03-03T07:00:34.028Z,66.18
2019-03-03T07:03:02.922Z,65.78
2019-03-03T07:05:31.701Z,65.97
2019-03-03T07:08:00.537Z,66.14
2019-03-03T07:10:29.369Z,66.21
2019-03-03T07:13:06.767Z,65.86
2019-03-03T07:15:45.163Z,66.86
2019-03-03T07:18:14.275Z,66.76
2019-03-03T07:20:43.137Z,66.68
2019-03-03T07:23:11.953Z,66.40
2019-03-03T07:25:40.814Z,66.50
2019-03-03T07:28:09.639Z,66.82
2019-03-03T07:30:38.431Z,66.88
2019-03-03T07:33:25.216Z,67.02
2019-03-03T07:35:54.001Z,67.48
2019-03-03T07:38:22.794Z,67.85
2019-03-03T07:40:51.688Z,67.92
2019-03-03T07:43:20.468Z,67.78
2019-03-03T07:45:49.341Z,68.57
2019-03-03T07:48:18.229Z,69.97
2019-03-03T07:50:47.012Z,70.13
2019-03-03T07:53:15.897Z,71.96
2019-03-03T07:55:44.732Z,72.44
2019-03-03T07:58:13.512Z,73.79
2019-03-03T08:00:42.329Z,74.18
2019-03-03T08:03:11.187Z,73.85
2019-03-03T08:05:39.970Z,74.24
2019-03-03T08:08:08.863Z,74.76
2019-03-03T08:10:37.685Z,75.25
2019-03-03T08:13:09.434Z,75.21
2019-03-03T08:15:37.111Z,76.52
2019-03-03T08:18:06.051Z,77.20
2019-03-03T08:20:34.842Z,76.19
2019-03-03T08:23:03.698Z,75.58
2019-03-03T08:25:32.520Z,76.22
2019-03-03T08:28:01.353Z,77.76
2019-03-03T08:30:31.073Z,77.92
2019-03-03T08:33:00.099Z,78.08
2019-03-03T08:35:29.080Z,78.27
2019-03-03T08:37:57.891Z,78.10
2019-03-03T08:40:26.685Z,78.73
2019-03-03T08:43:17.054Z,79.77
2019-03-03T08:45:53.069Z,79.52
2019-03-03T08:48:59.270Z,80.07
2019-03-03T08:51:45.917Z,80.98
2019-03-03T08:54:49.073Z,81.21
2019-03-03T08:57:29.863Z,81.47
2019-03-03T09:00:06.048Z,81.57
2019-03-03T09:02:49.138Z,82.55
2019-03-03T09:05:48.999Z,82.69
2019-03-03T09:08:36.797Z,82.87
2019-03-03T09:11:25.072Z,83.23
2019-03-03T09:14:14.809Z,83.25
2019-03-03T09:17:07.109Z,84.13
2019-03-03T09:19:53.767Z,83.50
2019-03-03T09:22:31.591Z,84.17
2019-03-03T09:25:14.495Z,84.44
2019-03-03T09:28:08.422Z,84.49
2019-03-03T09:30:47.603Z,84.02
2019-03-03T09:33:34.254Z,83.91
2019-03-03T09:36:18.764Z,84.28
2019-03-03T09:39:00.988Z,84.33
2019-03-03T09:41:43.727Z,83.79
2019-03-03T09:44:32.228Z,84.38
2019-03-03T09:47:12.296Z,83.96
2019-03-03T09:49:59.522Z,84.43
2019-03-03T09:52:47.692Z,83.74
2019-03-03T09:55:26.199Z,84.05
2019-03-03T09:58:15.960Z,84.43
2019-03-03T10:01:03.074Z,85.15
2019-03-03T10:03:56.671Z,84.46
2019-03-03T10:06:47.651Z,84.77
2019-03-03T10:09:36.766Z,84.86
2019-03-03T10:12:14.925Z,85.25
2019-03-03T10:14:50.713Z,84.97
2019-03-03T10:17:39.234Z,84.71
2019-03-03T10:20:22.160Z,85.25
2019-03-03T10:23:21.491Z,84.96
2019-03-03T10:26:08.937Z,85.77
2019-03-03T10:28:56.959Z,83.94
2019-03-03T10:31:48.654Z,84.53
2019-03-03T10:34:25.895Z,83.50
2019-03-03T10:37:06.724Z,83.75
2019-03-03T10:39:40.986Z,83.26
2019-03-03T10:42:27.833Z,84.48
2019-03-03T10:45:03.220Z,83.69
2019-03-03T10:47:37.924Z,83.79
2019-03-03T10:50:23.217Z,83.29
2019-03-03T10:53:17.272Z,83.63
2019-03-03T10:56:12.339Z,83.08
2019-03-03T10:58:59.441Z,81.95
2019-03-03T11:01:46.147Z,82.97
2019-03-03T11:04:37.271Z,83.07
2019-03-03T11:07:13.416Z,84.05
2019-03-03T11:09:59.810Z,84.70
2019-03-03T11:12:40.381Z,83.31
2019-03-03T11:15:24.542Z,83.39
2019-03-03T11:18:13.996Z,83.20
2019-03-03T11:21:01.192Z,82.80
2019-03-03T11:23:52.021Z,85.03
2019-03-03T11:26:29.929Z,84.87
2019-03-03T11:29:31.017Z,84.27
2019-03-03T11:32:17.146Z,82.43
2019-03-03T11:34:59.773Z,83.83
2019-03-03T11:37:47.193Z,83.97
2019-03-03T11:40:32.198Z,83.64
2019-03-03T11:43:20.639Z,83.12
2019-03-03T11:46:13.459Z,82.77
2019-03-03T11:48:55.717Z,83.43
2019-03-03T11:51:50.359Z,84.47
2019-03-03T11:54:33.835Z,83.67
2019-03-03T11:57:21.883Z,83.54
2019-03-03T12:00:10.015Z,83.74
2019-03-03T12:02:53.961Z,84.55
2019-03-03T12:05:41.181Z,83.48
2019-03-03T12:08:29.084Z,84.01
2019-03-03T12:11:15.611Z,83.11
2019-03-03T12:14:04.269Z,83.71
2019-03-03T12:16:47.286Z,83.15
2019-03-03T12:19:45.004Z,82.85
2019-03-03T12:22:38.992Z,81.94
2019-03-03T12:25:31.080Z,83.17
2019-03-03T12:28:09.193Z,82.62
2019-03-03T12:31:01.942Z,83.71
2019-03-03T12:33:43.551Z,83.53
2019-03-03T12:36:37.398Z,82.88
2019-03-03T12:39:37.911Z,83.63
2019-03-03T12:42:16.977Z,81.21
2019-03-03T12:44:54.976Z,82.55
2019-03-03T12:47:36.646Z,82.83
2019-03-03T12:50:24.029Z,81.53
2019-03-03T12:53:16.155Z,81.40
2019-03-03T12:56:03.507Z,82.74
2019-03-03T12:58:39.124Z,82.32
2019-03-03T13:01:26.101Z,82.21
2019-03-03T13:04:12.840Z,81.48
2019-03-03T13:07:07.648Z,82.81
2019-03-03T13:10:00.796Z,82.61
2019-03-03T13:12:44.399Z,81.04
2019-03-03T13:15:28.806Z,82.84
2019-03-03T13:18:15.397Z,82.12
2019-03-03T13:20:54.651Z,81.69
2019-03-03T13:23:29.329Z,81.42
2019-03-03T13:26:20.409Z,81.82
2019-03-03T13:29:03.979Z,79.95
2019-03-03T13:31:47.435Z,80.77
2019-03-03T13:34:46.602Z,80.44
2019-03-03T13:37:29.233Z,81.07
2019-03-03T13:40:09.207Z,81.36
2019-03-03T13:43:05.449Z,80.13
2019-03-03T13:45:34.509Z,80.15
2019-03-03T13:48:02.463Z,80.47
2019-03-03T13:50:31.170Z,79.02
2019-03-03T13:52:59.208Z,78.78
2019-03-03T13:55:27.150Z,78.88
2019-03-03T13:57:55.085Z,78.74
2019-03-03T14:00:23.439Z,78.19
2019-03-03T14:02:51.654Z,78.17
2019-03-03T14:05:20.583Z,78.04
2019-03-03T14:07:48.826Z,78.34
2019-03-03T14:10:16.774Z,77.42
2019-03-03T14:12:45.119Z,78.34
2019-03-03T14:15:13.846Z,77.97
2019-03-03T14:17:41.715Z,77.22
2019-03-03T14:20:13.114Z,78.42
2019-03-03T14:22:40.986Z,78.33
2019-03-03T14:25:09.049Z,78.51
2019-03-03T14:27:37.029Z,79.23
2019-03-03T14:30:05.306Z,78.19
2019-03-03T14:32:33.177Z,79.31
2019-03-03T14:35:01.131Z,79.22
2019-03-03T14:37:29.746Z,78.89
2019-03-03T14:39:58.002Z,79.44
2019-03-03T14:42:25.874Z,80.19
2019-03-03T14:44:53.787Z,79.89
2019-03-03T14:47:21.654Z,79.71
2019-03-03T14:49:49.530Z,78.92
2019-03-03T14:52:17.434Z,81.34
2019-03-03T14:54:45.302Z,81.14
2019-03-03T14:57:13.170Z,80.03
2019-03-03T14:59:41.174Z,80.79
2019-03-03T15:02:09.145Z,81.25
2019-03-03T15:04:37.095Z,81.64
2019-03-03T15:07:05.057Z,80.59
2019-03-03T15:09:33.010Z,80.32
2019-03-03T15:12:00.910Z,80.96
2019-03-03T15:14:28.778Z,81.89
2019-03-03T15:16:56.730Z,80.86
2019-03-03T15:19:24.710Z,81.51
2019-03-03T15:21:52.574Z,81.47
2019-03-03T15:24:20.522Z,81.64
2019-03-03T15:26:48.490Z,80.33
2019-03-03T15:29:16.803Z,82.60
2019-03-03T15:31:44.750Z,81.83
2019-03-03T15:34:13.025Z,80.93
2019-03-03T15:36:41.431Z,83.53
2019-03-03T15:39:09.385Z,82.44
2019-03-03T15:41:37.966Z,83.03
2019-03-03T15:44:06.009Z,82.18
2019-03-03T15:46:34.250Z,83.27
2019-03-03T15:49:03.026Z,83.69
2019-03-03T15:51:30.913Z,83.15
2019-03-03T15:53:58.903Z,83.37
2019-03-03T15:56:26.799Z,83.32
2019-03-03T15:58:55.834Z,83.18
2019-03-03T16:01:24.109Z,83.77
2019-03-03T16:03:51.987Z,83.06
2019-03-03T16:06:19.858Z,83.58
2019-03-03T16:08:47.850Z,83.21
2019-03-03T16:11:15.713Z,82.47
2019-03-03T16:13:43.697Z,82.03
2019-03-03T16:16:12.049Z,81.98
2019-03-03T16:18:40.018Z,82.25
2019-03-03T16:21:07.981Z,82.03
2019-03-03T16:23:36.149Z,83.05
2019-03-03T16:26:04.531Z,82.15
2019-03-03T16:28:32.433Z,82.74
2019-03-03T16:31:00.401Z,81.31
2019-03-03T16:33:28.305Z,82.63
2019-03-03T16:35:56.182Z,82.49
2019-03-03T16:38:24.117Z,82.40
2019-03-03T16:40:52.030Z,81.59
2019-03-03T16:43:19.978Z,81.54
2019-03-03T16:45:47.934Z,81.28
2019-03-03T16:48:16.207Z,81.68
2019-03-03T16:50:44.141Z,81.57
2019-03-03T16:53:12.305Z,80.97
2019-03-03T16:55:40.277Z,80.83
2019-03-03T16:58:08.217Z,80.69
2019-03-03T17:00:36.201Z,80.72
2019-03-03T17:03:04.145Z,80.11
2019-03-03T17:05:32.157Z,79.46
2019-03-03T17:08:00.022Z,79.44
2019-03-03T17:10:27.894Z,79.50
2019-03-03T17:12:55.811Z,78.57
2019-03-03T17:15:23.789Z,79.05
2019-03-03T17:17:51.742Z,78.01
2019-03-03T17:20:19.654Z,77.83
2019-03-03T17:22:47.519Z,78.19
2019-03-03T17:25:16.473Z,78.10
2019-03-03T17:27:44.371Z,77.66
2019-03-03T17:30:13.606Z,76.83
2019-03-03T17:32:41.578Z,77.27
2019-03-03T17:35:09.562Z,76.91
2019-03-03T17:37:37.539Z,76.69
2019-03-03T17:40:06.147Z,75.97
2019-03-03T17:42:34.063Z,75.86
2019-03-03T17:45:02.004Z,76.20
2019-03-03T17:47:29.891Z,75.17
2019-03-03T17:49:57.799Z,75.52
2019-03-03T17:52:25.682Z,75.42
2019-03-03T17:54:53.551Z,75.95
2019-03-03T17:57:21.448Z,75.95
2019-03-03T17:59:49.310Z,75.44
2019-03-03T18:02:17.230Z,75.09
2019-03-03T18:04:45.098Z,74.92
2019-03-03T18:07:13.024Z,75.28
2019-03-03T18:09:40.900Z,74.16
2019-03-03T18:12:08.921Z,74.44
2019-03-03T18:14:36.850Z,73.71
2019-03-03T18:17:04.718Z,74.33
2019-03-03T18:19:32.602Z,73.08
2019-03-03T18:22:00.522Z,73.24
2019-03-03T18:24:28.405Z,73.05
2019-03-03T18:26:56.341Z,73.39
2019-03-03T18:29:24.242Z,73.05
2019-03-03T18:31:52.139Z,73.52
2019-03-03T18:34:20.006Z,73.04
2019-03-03T18:36:47.919Z,73.04
2019-03-03T18:39:15.782Z,73.05
2019-03-03T18:41:43.658Z,72.05
2019-03-03T18:44:11.559Z,72.52
2019-03-03T18:46:39.508Z,71.85
2019-03-03T18:49:07.685Z,71.88
2019-03-03T18:51:35.558Z,70.93
2019-03-03T18:54:03.802Z,71.29
2019-03-03T18:56:31.710Z,70.53
2019-03-03T18:58:59.710Z,70.92
2019-03-03T19:01:27.614Z,70.65
2019-03-03T19:03:55.494Z,70.85
2019-03-03T19:06:23.463Z,69.87
2019-03-03T19:08:51.406Z,70.37
2019-03-03T19:11:19.601Z,70.40
2019-03-03T19:13:47.474Z,70.36
2019-03-03T19:16:15.506Z,70.03
2019-03-03T19:18:43.714Z,69.45
2019-03-03T19:21:11.906Z,69.55
2019-03-03T19:23:40.171Z,69.47
2019-03-03T19:26:08.384Z,69.17
2019-03-03T19:28:36.346Z,69.34
2019-03-03T19:31:04.263Z,68.71
2019-03-03T19:33:37.286Z,68.83
2019-03-03T19:36:05.231Z,68.55
2019-03-03T19:38:33.561Z,69.03
2019-03-03T19:41:01.514Z,68.12
2019-03-03T19:43:29.509Z,68.38
2019-03-03T19:45:57.532Z,67.93
2019-03-03T19:48:25.400Z,67.77
2019-03-03T19:50:53.442Z,67.32
2019-03-03T19:53:21.402Z,67.20
2019-03-03T19:55:49.730Z,66.99
2019-03-03T19:58:17.658Z,67.00
2019-03-03T20:00:45.599Z,66.81
2019-03-03T20:03:13.525Z,66.94
2019-03-03T20:05:41.473Z,67.53
2019-03-03T20:08:09.806Z,66.94
2019-03-03T20:10:37.803Z,67.44
2019-03-03T20:13:06.354Z,67.82
2019-03-03T20:15:35.397Z,67.21
2019-03-03T20:18:03.378Z,68.13
2019-03-03T20:20:31.254Z,67.34
2019-03-03T20:22:59.131Z,67.71
2019-03-03T20:25:27.121Z,67.04
2019-03-03T20:27:55.098Z,67.28
2019-03-03T20:30:23.174Z,67.84
2019-03-03T20:32:51.254Z,67.15
2019-03-03T20:35:19.234Z,67.36
2019-03-03T20:37:47.483Z,67.11
2019-03-03T20:40:15.433Z,67.18
2019-03-03T20:42:43.343Z,67.69
2019-03-03T20:45:21.049Z,67.25
2019-03-03T20:47:48.950Z,66.63
2019-03-03T20:50:17.893Z,66.90
2019-03-03T20:52:45.842Z,66.18
2019-03-03T20:55:14.522Z,65.67
2019-03-03T20:57:42.497Z,65.98
2019-03-03T21:00:12.504Z,66.31
2019-03-03T21:02:40.451Z,65.89
2019-03-03T21:05:08.487Z,65.97
2019-03-03T21:07:36.357Z,65.59
2019-03-03T21:10:05.502Z,65.09
2019-03-03T21:12:33.414Z,65.69
2019-03-03T21:15:01.386Z,65.82
2019-03-03T21:17:29.330Z,65.93
2019-03-03T21:19:57.238Z,65.82
2019-03-03T21:22:25.115Z,65.89
2019-03-03T21:24:53.133Z,65.98
2019-03-03T21:27:21.031Z,65.92
2019-03-03T21:29:48.911Z,66.01
2019-03-03T21:32:16.909Z,65.76
2019-03-03T21:34:44.806Z,65.44
2019-03-03T21:37:13.090Z,64.98
2019-03-03T21:39:40.968Z,64.69
2019-03-03T21:42:08.838Z,64.77
2019-03-03T21:44:36.734Z,64.46
2019-03-03T21:47:04.597Z,64.49
2019-03-03T21:49:32.505Z,65.75
2019-03-03T21:52:00.382Z,68.50
2019-03-03T21:54:28.355Z,70.93
2019-03-03T21:56:56.223Z,71.51
2019-03-03T21:59:24.174Z,71.04
2019-03-03T22:01:52.182Z,70.59
2019-03-03T22:04:20.074Z,70.70
2019-03-03T22:06:47.947Z,70.96
2019-03-03T22:09:15.925Z,71.47
2019-03-03T22:11:43.793Z,71.37
2019-03-03T22:14:11.693Z,70.82
2019-03-03T22:16:39.601Z,70.79
2019-03-03T22:19:07.498Z,70.28
2019-03-03T22:21:35.361Z,69.99
2019-03-03T22:24:03.661Z,70.10
2019-03-03T22:26:31.873Z,69.83
2019-03-03T22:28:59.769Z,69.63
2019-03-03T22:31:27.662Z,70.12
2019-03-03T22:33:55.690Z,69.25
2019-03-03T22:36:23.621Z,68.35
2019-03-03T22:38:51.511Z,67.66
2019-03-03T22:41:19.408Z,67.16
2019-03-03T22:43:47.278Z,66.46
2019-03-03T22:46:15.202Z,66.55
2019-03-03T22:48:43.078Z,66.07
2019-03-03T22:51:10.958Z,66.20
2019-03-03T22:53:38.877Z,67.04
2019-03-03T22:56:06.753Z,67.15
2019-03-03T22:58:34.621Z,67.64
2019-03-03T23:01:07.473Z,67.60
2019-03-03T23:03:40.979Z,66.24
2019-03-03T23:06:14.820Z,67.22
2019-03-03T23:08:56.357Z,66.71
2019-03-03T23:11:31.857Z,66.93
2019-03-03T23:14:28.074Z,66.76
2019-03-03T23:17:04.926Z,67.44
2019-03-03T23:19:44.813Z,67.33
2019-03-03T23:22:20.013Z,67.76
2019-03-03T23:25:07.175Z,67.93
2019-03-03T23:27:35.119Z,66.97
2019-03-03T23:30:02.994Z,67.09
2019-03-03T23:32:30.892Z,67.17
2019-03-03T23:34:59.082Z,67.07
2019-03-03T23:37:26.989Z,67.36
2019-03-03T23:39:54.887Z,67.18
2019-03-03T23:42:23.154Z,67.41
2019-03-03T23:44:52.729Z,67.77
2019-03-03T23:47:20.665Z,67.53
2019-03-03T23:49:48.534Z,67.94
2019-03-03T23:52:16.438Z,68.05
2019-03-03T23:54:44.801Z,67.90
2019-03-03T23:57:12.669Z,68.05
2019-03-03T23:59:40.542Z,67.65
